createdAt,value
2023-02-27T00:02:01.570Z,62.91
2023-02-27T00:04:28.518Z,63.36
2023-02-27T00:06:55.410Z,63.80
2023-02-27T00:09:22.210Z,63.66
2023-02-27T00:11:49.082Z,63.93
2023-02-27T00:14:18.904Z,64.53
2023-02-27T00:16:45.781Z,64.49
2023-02-27T00:19:13.694Z,64.35
2023-02-27T00:21:44.398Z,64.13
2023-02-27T00:24:11.686Z,64.46
2023-02-27T00:26:38.461Z,64.38
2023-02-27T00:29:06.461Z,64.77
2023-02-27T00:31:33.504Z,65.04
2023-02-27T00:34:00.604Z,65.16
2023-02-27T00:36:29.507Z,65.47
2023-02-27T00:38:56.353Z,65.30
2023-02-27T00:41:27.710Z,65.49
2023-02-27T00:43:54.920Z,65.33
2023-02-27T00:46:23.056Z,65.21
2023-02-27T00:48:49.836Z,65.35
2023-02-27T00:51:16.726Z,65.51
2023-02-27T00:53:43.554Z,66.51
2023-02-27T00:56:10.595Z,67.03
2023-02-27T00:58:37.631Z,67.28
2023-02-27T01:01:04.665Z,67.01
2023-02-27T01:03:31.483Z,67.01
2023-02-27T01:05:58.984Z,67.23
2023-02-27T01:08:25.938Z,67.19
2023-02-27T01:10:57.191Z,67.87
2023-02-27T01:13:24.247Z,67.69
2023-02-27T01:15:51.685Z,67.96
2023-02-27T01:18:18.663Z,68.28
2023-02-27T01:20:45.441Z,68.12
2023-02-27T01:23:12.661Z,68.19
2023-02-27T01:25:39.893Z,67.91
2023-02-27T01:28:06.634Z,68.55
2023-02-27T01:30:33.758Z,68.42
2023-02-27T01:33:00.864Z,68.65
2023-02-27T01:35:27.601Z,68.82
2023-02-27T01:37:54.426Z,68.86
2023-02-27T01:40:21.357Z,69.16
2023-02-27T01:42:48.392Z,69.37
2023-02-27T01:45:31.130Z,69.63
2023-02-27T01:48:13.451Z,69.49
2023-02-27T01:51:08.994Z,69.69
2023-02-27T01:53:43.019Z,69.79
2023-02-27T01:56:23.338Z,70.45
2023-02-27T01:58:55.503Z,70.41
2023-02-27T02:01:23.500Z,70.63
2023-02-27T02:04:24.894Z,70.72
2023-02-27T02:07:00.720Z,71.07
2023-02-27T02:09:30.198Z,70.80
2023-02-27T02:11:59.297Z,70.77
2023-02-27T02:14:26.087Z,70.79
2023-02-27T02:17:48.015Z,71.24
2023-02-27T02:21:06.835Z,71.22
2023-02-27T02:24:17.570Z,71.40
2023-02-27T02:27:27.749Z,71.68
2023-02-27T02:30:13.282Z,71.44
2023-02-27T02:33:02.038Z,71.62
2023-02-27T02:35:56.551Z,71.68
2023-02-27T02:38:56.307Z,72.20
2023-02-27T02:41:32.215Z,72.12
2023-02-27T02:44:26.304Z,72.83
2023-02-27T02:47:16.904Z,72.54
2023-02-27T02:50:05.917Z,71.93
2023-02-27T02:52:54.039Z,72.50
2023-02-27T02:56:14.344Z,72.47
2023-02-27T02:59:06.106Z,73.15
2023-02-27T03:01:51.609Z,72.96
2023-02-27T03:04:43.833Z,73.18
2023-02-27T03:07:37.206Z,72.98
2023-02-27T03:10:16.115Z,73.42
2023-02-27T03:12:55.691Z,73.50
2023-02-27T03:15:30.711Z,74.02
2023-02-27T03:18:43.325Z,73.92
2023-02-27T03:21:26.312Z,73.86
2023-02-27T03:24:00.153Z,74.22
2023-02-27T03:26:36.433Z,73.74
2023-02-27T03:29:22.606Z,73.69
2023-02-27T03:32:04.266Z,73.83
2023-02-27T03:34:37.303Z,74.23
2023-02-27T03:37:22.673Z,74.69
2023-02-27T03:40:07.729Z,74.89
2023-02-27T03:43:19.295Z,74.90
2023-02-27T03:45:58.317Z,75.01
2023-02-27T03:48:25.710Z,74.88
2023-02-27T03:50:52.749Z,75.26
2023-02-27T03:53:49.328Z,75.17
2023-02-27T03:56:24.182Z,75.18
2023-02-27T03:58:52.579Z,74.87
2023-02-27T04:01:20.099Z,75.02
2023-02-27T04:04:00.544Z,75.09
2023-02-27T04:06:46.634Z,74.95
2023-02-27T04:09:30.262Z,75.22
2023-02-27T04:12:45.552Z,75.13
2023-02-27T04:16:01.677Z,75.34
2023-02-27T04:19:08.289Z,75.87
2023-02-27T04:21:41.766Z,76.11
2023-02-27T04:24:47.472Z,76.03
2023-02-27T04:27:36.332Z,75.84
2023-02-27T04:30:37.579Z,75.91
2023-02-27T04:33:24.580Z,76.04
2023-02-27T04:36:07.264Z,76.23
2023-02-27T04:38:58.848Z,76.32
2023-02-27T04:41:43.524Z,77.23
2023-02-27T04:44:13.212Z,77.04
2023-02-27T04:46:44.325Z,76.84
2023-02-27T04:49:35.148Z,77.12
2023-02-27T04:52:31.732Z,77.21
2023-02-27T04:55:25.199Z,76.91
2023-02-27T04:58:10.282Z,77.27
2023-02-27T05:00:41.249Z,77.49
2023-02-27T05:03:25.360Z,77.87
2023-02-27T05:05:58.783Z,77.74
2023-02-27T05:08:43.175Z,77.71
2023-02-27T05:11:34.909Z,77.56
2023-02-27T05:14:21.398Z,78.25
2023-02-27T05:17:09.256Z,78.03
2023-02-27T05:19:41.317Z,78.39
2023-02-27T05:22:36.372Z,78.20
2023-02-27T05:25:41.323Z,78.55
2023-02-27T05:28:21.257Z,78.84
2023-02-27T05:31:41.419Z,78.67
2023-02-27T05:34:18.337Z,78.38
2023-02-27T05:37:02.045Z,78.53
2023-02-27T05:39:34.458Z,78.65
2023-02-27T05:42:14.357Z,78.42
2023-02-27T05:44:49.667Z,78.43
2023-02-27T05:47:22.636Z,78.61
2023-02-27T05:50:02.783Z,78.48
2023-02-27T05:52:32.257Z,78.98
2023-02-27T05:55:13.886Z,78.92
2023-02-27T05:57:51.891Z,79.10
2023-02-27T06:00:29.917Z,78.66
2023-02-27T06:02:56.769Z,78.88
2023-02-27T06:05:26.437Z,78.61
2023-02-27T06:07:53.200Z,78.25
2023-02-27T06:10:22.198Z,78.16
2023-02-27T06:12:49.094Z,78.25
2023-02-27T06:15:17.469Z,78.62
2023-02-27T06:17:47.357Z,78.52
2023-02-27T06:20:14.286Z,78.37
2023-02-27T06:22:41.601Z,78.46
2023-02-27T06:25:10.457Z,78.37
2023-02-27T06:27:37.580Z,79.00
2023-02-27T06:30:07.404Z,79.17
2023-02-27T06:32:34.603Z,79.50
2023-02-27T06:35:01.644Z,78.96
2023-02-27T06:37:28.533Z,79.13
2023-02-27T06:39:55.271Z,79.31
2023-02-27T06:42:22.669Z,78.94
2023-02-27T06:44:49.727Z,78.80
2023-02-27T06:47:16.799Z,78.76
2023-02-27T06:49:44.049Z,79.13
2023-02-27T06:52:10.791Z,78.98
2023-02-27T06:54:37.960Z,79.29
2023-02-27T06:57:05.120Z,79.29
2023-02-27T06:59:33.251Z,79.26
2023-02-27T07:02:00.597Z,79.38
2023-02-27T07:04:27.441Z,79.22
2023-02-27T07:07:34.247Z,79.13
2023-02-27T07:09:43.070Z,79.33
2023-02-27T07:12:10.190Z,79.05
2023-02-27T07:14:37.359Z,79.19
2023-02-27T07:17:04.806Z,79.19
2023-02-27T07:19:34.176Z,79.13
2023-02-27T07:22:01.045Z,78.49
2023-02-27T07:24:28.061Z,77.97
2023-02-27T07:26:54.965Z,77.26
2023-02-27T07:29:22.046Z,77.35
2023-02-27T07:31:49.010Z,77.19
2023-02-27T07:34:16.220Z,77.25
2023-02-27T07:36:45.119Z,76.94
2023-02-27T07:39:14.679Z,77.14
2023-02-27T07:41:41.434Z,76.72
2023-02-27T07:44:10.818Z,76.71
2023-02-27T07:46:37.690Z,76.21
2023-02-27T07:49:04.479Z,76.43
2023-02-27T07:51:31.354Z,76.64
2023-02-27T07:53:58.728Z,75.60
2023-02-27T07:56:28.990Z,75.63
2023-02-27T07:58:56.625Z,74.69
2023-02-27T08:01:23.438Z,74.89
2023-02-27T08:03:50.428Z,73.68
2023-02-27T08:06:17.294Z,73.30
2023-02-27T08:08:44.388Z,72.78
2023-02-27T08:11:11.486Z,72.79
2023-02-27T08:16:25.594Z,70.83
2023-02-27T08:18:52.604Z,69.89
2023-02-27T08:21:19.480Z,68.62
2023-02-27T08:23:46.315Z,68.50
2023-02-27T08:26:16.101Z,67.03
2023-02-27T08:28:43.347Z,66.07
2023-02-27T08:31:10.542Z,65.66
2023-02-27T08:33:37.345Z,64.54
2023-02-27T08:36:04.916Z,63.80
2023-02-27T08:38:32.001Z,64.01
2023-02-27T08:40:58.874Z,62.91
2023-02-27T08:43:25.704Z,62.84
2023-02-27T08:45:56.360Z,62.19
2023-02-27T08:48:24.802Z,60.85
2023-02-27T08:50:52.237Z,60.21
2023-02-27T08:53:22.173Z,59.66
2023-02-27T08:55:53.258Z,58.66
2023-02-27T08:58:20.212Z,57.73
2023-02-27T09:00:47.416Z,56.85
2023-02-27T09:03:16.639Z,56.41
2023-02-27T09:05:44.084Z,55.89
2023-02-27T09:08:12.996Z,55.98
2023-02-27T09:10:39.769Z,55.19
2023-02-27T09:13:06.548Z,54.38
2023-02-27T09:15:35.966Z,54.06
2023-02-27T09:18:03.919Z,53.70
2023-02-27T09:20:31.728Z,53.87
2023-02-27T09:22:59.794Z,53.16
2023-02-27T09:25:27.579Z,52.80
2023-02-27T09:27:55.355Z,52.56
2023-02-27T09:30:23.351Z,51.24
2023-02-27T09:32:50.785Z,49.67
2023-02-27T09:35:20.556Z,50.07
2023-02-27T09:37:49.442Z,49.51
2023-02-27T09:40:31.506Z,48.67
2023-02-27T09:43:09.570Z,48.46
2023-02-27T09:45:39.507Z,48.56
2023-02-27T09:48:30.398Z,48.93
2023-02-27T09:50:59.180Z,48.05
2023-02-27T09:53:49.681Z,47.58
2023-02-27T09:56:28.450Z,47.01
2023-02-27T09:59:36.875Z,47.21
2023-02-27T10:02:12.392Z,47.98
2023-02-27T10:05:11.718Z,47.16
2023-02-27T10:08:04.610Z,48.47
2023-02-27T10:11:00.812Z,46.23
2023-02-27T10:13:53.518Z,45.74
2023-02-27T10:16:24.392Z,44.69
2023-02-27T10:19:07.411Z,45.07
2023-02-27T10:21:43.843Z,46.01
2023-02-27T10:24:38.023Z,45.40
2023-02-27T10:27:15.870Z,44.89
2023-02-27T10:29:43.121Z,44.03
2023-02-27T10:32:29.859Z,44.30
2023-02-27T10:35:27.139Z,44.40
2023-02-27T10:38:04.268Z,43.60
2023-02-27T10:40:35.332Z,42.14
2023-02-27T10:43:06.136Z,42.70
2023-02-27T10:45:34.842Z,43.73
2023-02-27T10:48:04.575Z,44.97
2023-02-27T10:50:39.184Z,44.59
2023-02-27T10:53:28.098Z,44.12
2023-02-27T10:56:04.316Z,44.31
2023-02-27T10:58:35.545Z,43.68
2023-02-27T11:01:06.962Z,43.21
2023-02-27T11:03:41.377Z,42.52
2023-02-27T11:06:26.467Z,42.89
2023-02-27T11:09:13.479Z,43.02
2023-02-27T11:11:40.342Z,42.61
2023-02-27T11:14:19.514Z,42.22
2023-02-27T11:16:52.834Z,41.51
2023-02-27T11:19:37.253Z,41.65
2023-02-27T11:22:20.309Z,40.59
2023-02-27T11:24:48.138Z,40.95
2023-02-27T11:27:28.793Z,40.43
2023-02-27T11:30:28.359Z,40.69
2023-02-27T11:33:00.740Z,40.91
2023-02-27T11:35:38.647Z,40.12
2023-02-27T11:38:18.204Z,39.40
2023-02-27T11:41:01.776Z,37.70
2023-02-27T11:43:39.971Z,36.23
2023-02-27T11:46:46.804Z,36.16
2023-02-27T11:49:35.914Z,35.57
2023-02-27T11:52:20.467Z,34.85
2023-02-27T11:54:57.141Z,34.11
2023-02-27T11:57:41.394Z,33.98
2023-02-27T12:00:22.685Z,33.91
2023-02-27T12:03:23.616Z,34.62
2023-02-27T12:06:04.844Z,36.73
2023-02-27T12:08:45.912Z,37.28
2023-02-27T12:11:44.144Z,37.88
2023-02-27T12:14:27.679Z,36.93
2023-02-27T12:17:07.067Z,38.09
2023-02-27T12:20:13.599Z,38.38
2023-02-27T12:22:46.955Z,37.58
2023-02-27T12:25:54.040Z,37.45
2023-02-27T12:28:34.929Z,37.17
2023-02-27T12:31:23.461Z,36.49
2023-02-27T12:34:03.880Z,36.57
2023-02-27T12:36:31.402Z,38.92
2023-02-27T12:39:01.334Z,40.30
2023-02-27T12:42:09.391Z,39.54
2023-02-27T12:45:27.711Z,38.95
2023-02-27T12:48:45.517Z,36.54
2023-02-27T12:51:58.393Z,36.02
2023-02-27T12:54:53.631Z,37.70
2023-02-27T12:58:03.752Z,38.32
2023-02-27T13:00:59.907Z,40.06
2023-02-27T13:04:00.709Z,39.65
2023-02-27T13:06:51.677Z,38.16
2023-02-27T13:09:34.698Z,35.78
2023-02-27T13:12:12.277Z,35.36
2023-02-27T13:15:23.657Z,37.07
2023-02-27T13:18:41.340Z,38.68
2023-02-27T13:21:48.358Z,38.97
2023-02-27T13:24:31.624Z,36.92
2023-02-27T13:27:17.989Z,35.80
2023-02-27T13:30:01.491Z,37.47
2023-02-27T13:32:44.033Z,38.36
2023-02-27T13:35:36.243Z,39.78
2023-02-27T13:38:41.702Z,40.71
2023-02-27T13:41:23.829Z,41.19
2023-02-27T13:43:55.992Z,41.31
2023-02-27T13:46:33.756Z,41.21
2023-02-27T13:49:20.022Z,41.68
2023-02-27T13:51:56.752Z,42.09
2023-02-27T13:54:29.651Z,41.99
2023-02-27T13:56:59.379Z,41.51
2023-02-27T13:59:41.813Z,41.23
2023-02-27T14:02:11.646Z,38.49
2023-02-27T14:04:53.958Z,37.45
2023-02-27T14:07:26.033Z,38.72
2023-02-27T14:10:12.801Z,39.19
2023-02-27T14:12:45.887Z,39.30
2023-02-27T14:15:22.182Z,40.18
2023-02-27T14:18:12.368Z,40.61
2023-02-27T14:20:42.551Z,40.65
2023-02-27T14:23:26.696Z,40.91
2023-02-27T14:26:05.300Z,40.67
2023-02-27T14:28:55.524Z,41.13
2023-02-27T14:31:36.674Z,40.67
2023-02-27T14:34:06.224Z,40.51
2023-02-27T14:36:42.614Z,40.70
2023-02-27T14:39:24.008Z,40.91
2023-02-27T14:42:09.161Z,41.30
2023-02-27T14:44:46.899Z,41.45
2023-02-27T14:47:33.557Z,41.97
2023-02-27T14:50:04.044Z,42.74
2023-02-27T14:52:41.778Z,42.67
2023-02-27T14:55:27.682Z,42.48
2023-02-27T14:58:31.517Z,42.31
2023-02-27T15:01:09.878Z,42.43
2023-02-27T15:03:50.242Z,42.38
2023-02-27T15:06:30.098Z,42.05
2023-02-27T15:08:57.226Z,42.59
2023-02-27T15:11:28.012Z,42.76
2023-02-27T15:14:03.465Z,42.29
2023-02-27T15:16:42.935Z,42.91
2023-02-27T15:19:19.178Z,43.39
2023-02-27T15:21:57.144Z,43.45
2023-02-27T15:24:43.854Z,43.03
2023-02-27T15:27:23.725Z,43.63
2023-02-27T15:29:58.651Z,43.36
2023-02-27T15:32:35.247Z,43.38
2023-02-27T15:35:13.550Z,43.50
2023-02-27T15:37:55.138Z,43.71
2023-02-27T15:40:33.254Z,43.67
2023-02-27T15:43:01.804Z,43.56
2023-02-27T15:45:35.982Z,43.65
2023-02-27T15:48:04.761Z,43.61
2023-02-27T15:50:37.316Z,43.74
2023-02-27T15:53:25.698Z,44.36
2023-02-27T15:55:57.950Z,43.43
2023-02-27T15:58:31.072Z,44.03
2023-02-27T16:01:07.677Z,44.49
2023-02-27T16:03:42.372Z,43.86
2023-02-27T16:06:34.082Z,43.80
2023-02-27T16:09:19.308Z,43.88
2023-02-27T16:11:46.494Z,43.95
2023-02-27T16:14:41.177Z,43.33
2023-02-27T16:17:30.611Z,43.16
2023-02-27T16:20:02.243Z,43.57
2023-02-27T16:22:30.517Z,43.90
2023-02-27T16:25:10.528Z,43.20
2023-02-27T16:27:39.420Z,43.93
2023-02-27T16:30:12.256Z,44.36
2023-02-27T16:32:42.331Z,44.57
2023-02-27T16:35:20.170Z,45.24
2023-02-27T16:37:49.127Z,44.66
2023-02-27T16:40:24.807Z,44.84
2023-02-27T16:42:52.911Z,45.09
2023-02-27T16:45:24.410Z,45.21
2023-02-27T16:47:57.240Z,45.39
2023-02-27T16:50:32.270Z,45.78
2023-02-27T16:53:00.077Z,45.37
2023-02-27T16:55:29.652Z,45.51
2023-02-27T16:57:56.782Z,45.64
2023-02-27T17:00:23.929Z,45.48
2023-02-27T17:02:51.339Z,45.76
2023-02-27T17:05:19.015Z,45.87
2023-02-27T17:07:46.559Z,45.81
2023-02-27T17:10:19.699Z,45.14
2023-02-27T17:12:47.972Z,45.04
2023-02-27T17:15:15.473Z,45.36
2023-02-27T17:17:42.889Z,44.80
2023-02-27T17:20:12.834Z,45.22
2023-02-27T17:22:43.763Z,45.55
2023-02-27T17:25:14.513Z,45.41
2023-02-27T17:27:44.687Z,45.15
2023-02-27T17:30:14.625Z,45.66
2023-02-27T17:32:41.493Z,44.15
2023-02-27T17:35:08.995Z,43.73
2023-02-27T17:37:37.331Z,44.07
2023-02-27T17:40:08.253Z,44.02
2023-02-27T17:42:39.872Z,44.28
2023-02-27T17:45:10.829Z,44.29
2023-02-27T17:47:40.786Z,44.06
2023-02-27T17:50:08.012Z,44.14
2023-02-27T17:52:37.967Z,44.13
2023-02-27T17:55:09.953Z,44.33
2023-02-27T17:57:42.118Z,44.12
2023-02-27T18:00:15.244Z,44.43
2023-02-27T18:02:45.244Z,44.43
2023-02-27T18:05:12.157Z,44.51
2023-02-27T18:07:39.610Z,44.93
2023-02-27T18:10:08.979Z,44.66
2023-02-27T18:12:37.235Z,45.01
2023-02-27T18:15:05.834Z,44.86
2023-02-27T18:17:33.049Z,44.84
2023-02-27T18:20:00.218Z,45.17
2023-02-27T18:22:27.406Z,45.41
2023-02-27T18:24:56.150Z,45.48
2023-02-27T18:27:22.945Z,45.50
2023-02-27T18:29:50.279Z,45.70
2023-02-27T18:32:18.116Z,46.07
2023-02-27T18:34:47.368Z,45.97
2023-02-27T18:37:14.681Z,45.88
2023-02-27T18:39:42.648Z,46.08
2023-02-27T18:42:09.472Z,46.02
2023-02-27T18:44:38.429Z,46.40
2023-02-27T18:47:05.599Z,46.24
2023-02-27T18:49:32.547Z,46.12
2023-02-27T18:51:59.460Z,46.70
2023-02-27T18:54:26.341Z,46.48
2023-02-27T18:56:54.483Z,46.28
2023-02-27T18:59:21.353Z,46.47
2023-02-27T19:01:48.159Z,46.61
2023-02-27T19:04:16.474Z,46.54
2023-02-27T19:06:43.554Z,46.38
2023-02-27T19:09:16.224Z,46.13
2023-02-27T19:11:48.567Z,46.15
2023-02-27T19:14:16.418Z,46.25
2023-02-27T19:16:49.578Z,46.36
2023-02-27T19:19:18.314Z,46.58
2023-02-27T19:21:47.849Z,46.25
2023-02-27T19:24:18.736Z,46.70
2023-02-27T19:26:45.695Z,46.58
2023-02-27T19:29:15.332Z,46.79
2023-02-27T19:31:44.231Z,46.67
2023-02-27T19:34:14.957Z,46.79
2023-02-27T19:36:41.822Z,47.19
2023-02-27T19:39:10.319Z,47.29
2023-02-27T19:41:37.506Z,47.41
2023-02-27T19:44:04.461Z,47.63
2023-02-27T19:46:34.219Z,47.78
2023-02-27T19:49:05.126Z,47.77
2023-02-27T19:51:32.896Z,46.21
2023-02-27T19:53:59.882Z,45.96
2023-02-27T19:56:28.973Z,45.64
2023-02-27T19:58:56.580Z,45.20
2023-02-27T20:01:38.891Z,45.10
2023-02-27T20:04:08.206Z,44.78
2023-02-27T20:06:45.082Z,44.92
2023-02-27T20:09:17.209Z,44.11
2023-02-27T20:11:50.939Z,44.25
2023-02-27T20:14:17.821Z,44.20
2023-02-27T20:16:45.407Z,44.15
2023-02-27T20:19:16.613Z,44.73
2023-02-27T20:21:44.743Z,44.79
2023-02-27T20:24:12.605Z,44.89
2023-02-27T20:26:43.762Z,45.23
2023-02-27T20:29:18.140Z,45.13
2023-02-27T20:31:49.302Z,45.28
2023-02-27T20:34:22.142Z,45.79
2023-02-27T20:36:50.611Z,45.91
2023-02-27T20:39:18.895Z,46.61
2023-02-27T20:41:46.996Z,46.92
2023-02-27T20:44:14.350Z,46.66
2023-02-27T20:46:43.549Z,46.58
2023-02-27T20:49:15.447Z,46.81
2023-02-27T20:51:43.351Z,47.17
2023-02-27T20:54:16.394Z,47.40
2023-02-27T20:56:44.122Z,47.48
2023-02-27T20:59:16.904Z,47.49
2023-02-27T21:01:51.391Z,48.02
2023-02-27T21:04:24.793Z,47.92
2023-02-27T21:06:52.811Z,47.54
2023-02-27T21:09:19.781Z,47.57
2023-02-27T21:11:49.131Z,47.80
2023-02-27T21:14:16.598Z,47.89
2023-02-27T21:16:43.544Z,47.88
2023-02-27T21:19:10.463Z,47.66
2023-02-27T21:21:38.395Z,47.73
2023-02-27T21:24:06.094Z,47.85
2023-02-27T21:26:38.400Z,47.86
2023-02-27T21:29:11.037Z,47.95
2023-02-27T21:31:41.069Z,47.94
2023-02-27T21:34:12.730Z,48.02
2023-02-27T21:36:43.332Z,48.18
2023-02-27T21:39:22.944Z,48.13
2023-02-27T21:41:50.876Z,48.17
2023-02-27T21:44:24.882Z,48.23
2023-02-27T21:46:53.847Z,48.60
2023-02-27T21:49:28.688Z,48.80
2023-02-27T21:51:56.969Z,48.49
2023-02-27T21:54:23.933Z,48.66
2023-02-27T21:56:52.096Z,48.60
2023-02-27T21:59:20.360Z,48.84
2023-02-27T22:01:48.235Z,49.17
2023-02-27T22:04:18.244Z,49.17
2023-02-27T22:06:45.888Z,49.12
2023-02-27T22:09:13.590Z,49.22
2023-02-27T22:11:40.976Z,49.39
2023-02-27T22:14:09.393Z,49.41
2023-02-27T22:16:39.471Z,49.55
2023-02-27T22:19:09.203Z,49.49
2023-02-27T22:21:38.424Z,49.41
2023-02-27T22:24:07.168Z,49.54
2023-02-27T22:26:35.227Z,49.71
2023-02-27T22:29:03.192Z,49.61
2023-02-27T22:31:34.435Z,50.04
2023-02-27T22:34:18.234Z,49.75
2023-02-27T22:36:48.648Z,49.76
2023-02-27T22:39:15.604Z,49.86
2023-02-27T22:41:42.858Z,49.85
2023-02-27T22:44:17.728Z,49.94
2023-02-27T22:46:48.324Z,49.81
2023-02-27T22:49:22.790Z,49.77
2023-02-27T22:51:51.897Z,50.06
2023-02-27T22:54:21.805Z,50.10
2023-02-27T22:56:57.845Z,50.44
2023-02-27T22:59:25.687Z,50.36
2023-02-27T23:01:53.990Z,50.17
2023-02-27T23:04:22.209Z,49.98
2023-02-27T23:06:52.483Z,50.26
2023-02-27T23:09:24.015Z,50.49
2023-02-27T23:11:51.606Z,50.55
2023-02-27T23:14:19.164Z,50.55
2023-02-27T23:16:46.636Z,50.48
2023-02-27T23:19:17.243Z,50.59
2023-02-27T23:21:44.447Z,50.66
2023-02-27T23:24:19.367Z,50.60
2023-02-27T23:26:49.662Z,51.12
2023-02-27T23:29:20.145Z,51.27
2023-02-27T23:31:47.152Z,51.47
2023-02-27T23:34:14.033Z,51.85
2023-02-27T23:36:41.040Z,51.74
2023-02-27T23:39:08.886Z,51.92
2023-02-27T23:41:35.936Z,52.17
2023-02-27T23:44:03.320Z,52.37
2023-02-27T23:46:30.798Z,52.13
2023-02-27T23:49:03.295Z,52.33
2023-02-27T23:51:31.072Z,52.50
2023-02-27T23:53:59.646Z,52.67
2023-02-27T23:56:30.329Z,52.92
2023-02-27T23:59:04.256Z,53.14
